Decoded Metar for PPIT ( in ) (IATA:) | Meteo·Mobile Aviation Weather
aviador You're here:

PPIT Decoded Metar

in
Report Time2019-10-22 13:56:00
UTC Time2019-10-22 14:10:02
Flight Rules vfr VFR
Wind150° at 11 kt
W.Decomp.*RWY 18: 9.5 kt HW 5.5 kt LCW
Visibility9999 m
Phenomena:N/A
Clouds:Broken 046 Hf
Ceiling4,600 ft
Temp02°C
Dew Point02°C (100% RH)
AAT-3.6°C
QNH1003 hPa
Raw Report
PPIT 221356Z AUTO 15011KT 10SM BKN046 02/02 A2962 RMK AO2 SLP034
T00170017 FZRANO TSNO=

Extra information for PPIT:More info

Social comments